sensor_id;sensor_type;location;lat;lon;timestamp;pressure;altitude;pressure_sealevel;temperature;humidity
58295;BME280;45705;55.592;37.460;2022-12-18T00:01:26;98521.25;;;-4.24;100.00
58295;BME280;45705;55.592;37.460;2022-12-18T00:03:54;98511.22;;;-4.64;100.00
58295;BME280;45705;55.592;37.460;2022-12-18T00:06:21;98521.31;;;-4.43;100.00
58295;BME280;45705;55.592;37.460;2022-12-18T00:08:47;98510.84;;;-4.38;100.00
58295;BME280;45705;55.592;37.460;2022-12-18T00:11:17;98507.28;;;-4.31;100.00
58295;BME280;45705;55.592;37.460;2022-12-18T00:13:43;98501.31;;;-4.57;100.00
58295;BME280;45705;55.592;37.460;2022-12-18T00:16:15;98488.69;;;-4.31;100.00
58295;BME280;45705;55.592;37.460;2022-12-18T00:18:41;98495.50;;;-4.24;100.00
58295;BME280;45705;55.592;37.460;2022-12-18T00:21:09;98499.75;;;-4.35;100.00
58295;BME280;45705;55.592;37.460;2022-12-18T00:23:37;98492.59;;;-4.46;100.00
58295;BME280;45705;55.592;37.460;2022-12-18T00:26:11;98488.25;;;-4.70;100.00
58295;BME280;45705;55.592;37.460;2022-12-18T00:28:37;98487.56;;;-4.66;100.00
58295;BME280;45705;55.592;37.460;2022-12-18T00:31:05;98486.09;;;-4.50;100.00
58295;BME280;45705;55.592;37.460;2022-12-18T00:33:31;98485.47;;;-4.33;100.00
58295;BME280;45705;55.592;37.460;2022-12-18T00:36:12;98480.78;;;-4.50;100.00
58295;BME280;45705;55.592;37.460;2022-12-18T00:38:39;98465.16;;;-4.40;100.00
58295;BME280;45705;55.592;37.460;2022-12-18T00:41:06;98460.88;;;-4.29;100.00
58295;BME280;45705;55.592;37.460;2022-12-18T00:43:34;98467.81;;;-4.28;100.00
58295;BME280;45705;55.592;37.460;2022-12-18T00:46:00;98459.13;;;-4.47;100.00
58295;BME280;45705;55.592;37.460;2022-12-18T00:48:26;98455.31;;;-4.51;100.00
58295;BME280;45705;55.592;37.460;2022-12-18T00:50:51;98446.63;;;-4.58;100.00
58295;BME280;45705;55.592;37.460;2022-12-18T00:53:17;98445.28;;;-4.49;100.00
58295;BME280;45705;55.592;37.460;2022-12-18T00:55:44;98434.81;;;-4.44;100.00
58295;BME280;45705;55.592;37.460;2022-12-18T00:58:15;98427.72;;;-4.50;100.00
58295;BME280;45705;55.592;37.460;2022-12-18T01:00:41;98427.72;;;-4.50;100.00
58295;BME280;45705;55.592;37.460;2022-12-18T01:03:13;98420.59;;;-4.61;100.00
58295;BME280;45705;55.592;37.460;2022-12-18T01:05:40;98406.03;;;-4.70;100.00
58295;BME280;45705;55.592;37.460;2022-12-18T01:08:06;98418.38;;;-4.64;100.00
58295;BME280;45705;55.592;37.460;2022-12-18T01:10:32;98430.66;;;-4.82;100.00
58295;BME280;45705;55.592;37.460;2022-12-18T01:12:58;98414.75;;;-4.82;100.00
58295;BME280;45705;55.592;37.460;2022-12-18T01:15:23;98424.44;;;-4.76;100.00
58295;BME280;45705;55.592;37.460;2022-12-18T01:17:52;98425.75;;;-4.66;100.00
58295;BME280;45705;55.592;37.460;2022-12-18T01:20:18;98418.75;;;-4.49;100.00
58295;BME280;45705;55.592;37.460;2022-12-18T01:22:44;98424.84;;;-4.48;100.00
58295;BME280;45705;55.592;37.460;2022-12-18T01:25:10;98425.56;;;-4.53;100.00
58295;BME280;45705;55.592;37.460;2022-12-18T01:27:35;98428.00;;;-4.40;100.00
58295;BME280;45705;55.592;37.460;2022-12-18T01:30:03;98424.66;;;-4.35;100.00
58295;BME280;45705;55.592;37.460;2022-12-18T01:32:31;98419.25;;;-4.28;100.00
58295;BME280;45705;55.592;37.460;2022-12-18T01:34:57;98423.25;;;-4.49;100.00
58295;BME280;45705;55.592;37.460;2022-12-18T01:37:23;98411.13;;;-4.57;100.00
58295;BME280;45705;55.592;37.460;2022-12-18T01:39:48;98421.47;;;-4.67;100.00
58295;BME280;45705;55.592;37.460;2022-12-18T01:42:16;98413.66;;;-4.62;100.00
58295;BME280;45705;55.592;37.460;2022-12-18T01:45:01;98418.75;;;-4.37;100.00
58295;BME280;45705;55.592;37.460;2022-12-18T01:50:18;98412.72;;;-4.56;100.00
58295;BME280;45705;55.592;37.460;2022-12-18T01:52:48;98417.84;;;-4.85;100.00
58295;BME280;45705;55.592;37.460;2022-12-18T01:55:19;98412.44;;;-4.90;100.00
58295;BME280;45705;55.592;37.460;2022-12-18T01:57:47;98412.31;;;-4.83;100.00
58295;BME280;45705;55.592;37.460;2022-12-18T02:00:17;98407.28;;;-4.73;100.00
58295;BME280;45705;55.592;37.460;2022-12-18T02:02:47;98409.44;;;-4.82;100.00
58295;BME280;45705;55.592;37.460;2022-12-18T02:05:17;98413.13;;;-4.83;100.00
58295;BME280;45705;55.592;37.460;2022-12-18T02:13:41;98420.44;;;-5.08;100.00
58295;BME280;45705;55.592;37.460;2022-12-18T02:16:54;98408.66;;;-5.12;100.00
58295;BME280;45705;55.592;37.460;2022-12-18T02:22:29;98406.00;;;-5.12;100.00
58295;BME280;45705;55.592;37.460;2022-12-18T02:27:32;98402.44;;;-5.06;100.00
58295;BME280;45705;55.592;37.460;2022-12-18T02:30:01;98380.63;;;-5.20;100.00
58295;BME280;45705;55.592;37.460;2022-12-18T02:32:35;98397.84;;;-5.11;100.00
58295;BME280;45705;55.592;37.460;2022-12-18T02:35:05;98382.06;;;-5.36;100.00
58295;BME280;45705;55.592;37.460;2022-12-18T02:37:33;98406.50;;;-5.34;100.00
58295;BME280;45705;55.592;37.460;2022-12-18T02:40:04;98412.22;;;-5.37;100.00
58295;BME280;45705;55.592;37.460;2022-12-18T02:42:32;98407.13;;;-5.20;100.00
58295;BME280;45705;55.592;37.460;2022-12-18T02:44:59;98427.06;;;-5.18;100.00
58295;BME280;45705;55.592;37.460;2022-12-18T02:47:30;98414.06;;;-5.19;100.00
58295;BME280;45705;55.592;37.460;2022-12-18T03:01:09;98406.22;;;-5.44;100.00
58295;BME280;45705;55.592;37.460;2022-12-18T03:04:26;98405.28;;;-5.20;100.00
58295;BME280;45705;55.592;37.460;2022-12-18T03:07:05;98391.72;;;-5.42;100.00
58295;BME280;45705;55.592;37.460;2022-12-18T03:09:36;98400.47;;;-5.41;100.00
58295;BME280;45705;55.592;37.460;2022-12-18T03:12:23;98413.75;;;-5.29;100.00
58295;BME280;45705;55.592;37.460;2022-12-18T03:17:38;98410.34;;;-5.48;100.00
58295;BME280;45705;55.592;37.460;2022-12-18T03:20:16;98404.75;;;-5.40;100.00
58295;BME280;45705;55.592;37.460;2022-12-18T03:22:45;98393.63;;;-5.49;100.00
58295;BME280;45705;55.592;37.460;2022-12-18T03:25:14;98406.06;;;-5.31;100.00
58295;BME280;45705;55.592;37.460;2022-12-18T03:27:46;98415.34;;;-5.40;100.00
58295;BME280;45705;55.592;37.460;2022-12-18T03:30:15;98411.75;;;-5.46;100.00
58295;BME280;45705;55.592;37.460;2022-12-18T03:32:55;98418.13;;;-5.35;100.00
58295;BME280;45705;55.592;37.460;2022-12-18T03:35:28;98397.59;;;-5.40;100.00
58295;BME280;45705;55.592;37.460;2022-12-18T03:37:55;98394.91;;;-5.51;100.00
58295;BME280;45705;55.592;37.460;2022-12-18T03:40:33;98394.91;;;-5.51;100.00
58295;BME280;45705;55.592;37.460;2022-12-18T03:43:09;98399.22;;;-5.39;100.00
58295;BME280;45705;55.592;37.460;2022-12-18T03:45:39;98399.03;;;-5.56;100.00
58295;BME280;45705;55.592;37.460;2022-12-18T03:48:22;98412.84;;;-5.54;100.00
58295;BME280;45705;55.592;37.460;2022-12-18T03:54:02;98417.25;;;-5.47;100.00
58295;BME280;45705;55.592;37.460;2022-12-18T03:56:37;98411.22;;;-5.55;100.00
58295;BME280;45705;55.592;37.460;2022-12-18T03:59:06;98414.97;;;-5.44;100.00
58295;BME280;45705;55.592;37.460;2022-12-18T04:01:35;98423.16;;;-5.64;100.00
58295;BME280;45705;55.592;37.460;2022-12-18T04:04:04;98427.19;;;-5.80;100.00
58295;BME280;45705;55.592;37.460;2022-12-18T04:06:34;98443.75;;;-5.47;100.00
58295;BME280;45705;55.592;37.460;2022-12-18T04:09:01;98449.03;;;-5.47;100.00
58295;BME280;45705;55.592;37.460;2022-12-18T04:11:29;98450.66;;;-5.46;100.00
58295;BME280;45705;55.592;37.460;2022-12-18T04:13:56;98460.22;;;-5.45;100.00
58295;BME280;45705;55.592;37.460;2022-12-18T04:16:24;98448.59;;;-5.44;100.00
58295;BME280;45705;55.592;37.460;2022-12-18T04:18:53;98452.56;;;-5.54;100.00
58295;BME280;45705;55.592;37.460;2022-12-18T04:21:21;98459.00;;;-5.43;100.00
58295;BME280;45705;55.592;37.460;2022-12-18T04:23:49;98458.03;;;-5.48;100.00
58295;BME280;45705;55.592;37.460;2022-12-18T04:26:16;98469.94;;;-5.39;100.00
58295;BME280;45705;55.592;37.460;2022-12-18T04:28:51;98483.69;;;-5.49;100.00
58295;BME280;45705;55.592;37.460;2022-12-18T04:31:17;98490.38;;;-5.65;100.00
58295;BME280;45705;55.592;37.460;2022-12-18T04:33:42;98490.84;;;-5.68;100.00
58295;BME280;45705;55.592;37.460;2022-12-18T04:36:09;98486.75;;;-5.70;100.00
58295;BME280;45705;55.592;37.460;2022-12-18T04:38:35;98489.34;;;-5.45;100.00
58295;BME280;45705;55.592;37.460;2022-12-18T04:41:07;98483.31;;;-5.53;100.00
58295;BME280;45705;55.592;37.460;2022-12-18T04:43:34;98489.34;;;-5.45;100.00
58295;BME280;45705;55.592;37.460;2022-12-18T04:46:07;98493.34;;;-5.36;100.00
58295;BME280;45705;55.592;37.460;2022-12-18T04:48:33;98493.44;;;-5.43;100.00
58295;BME280;45705;55.592;37.460;2022-12-18T04:51:01;98498.16;;;-5.70;100.00
58295;BME280;45705;55.592;37.460;2022-12-18T04:53:27;98503.41;;;-5.63;100.00
58295;BME280;45705;55.592;37.460;2022-12-18T04:56:07;98500.28;;;-5.79;100.00
58295;BME280;45705;55.592;37.460;2022-12-18T04:58:33;98485.50;;;-5.86;100.00
58295;BME280;45705;55.592;37.460;2022-12-18T05:00:59;98487.56;;;-5.70;100.00
58295;BME280;45705;55.592;37.460;2022-12-18T05:03:25;98501.22;;;-5.91;100.00
58295;BME280;45705;55.592;37.460;2022-12-18T05:05:51;98517.09;;;-5.91;100.00
58295;BME280;45705;55.592;37.460;2022-12-18T05:08:17;98517.56;;;-5.76;100.00
58295;BME280;45705;55.592;37.460;2022-12-18T05:10:43;98507.53;;;-5.67;100.00
58295;BME280;45705;55.592;37.460;2022-12-18T05:13:09;98514.94;;;-5.76;100.00
58295;BME280;45705;55.592;37.460;2022-12-18T05:15:35;98522.56;;;-5.86;100.00
58295;BME280;45705;55.592;37.460;2022-12-18T05:18:01;98518.75;;;-5.72;100.00
58295;BME280;45705;55.592;37.460;2022-12-18T05:20:28;98539.38;;;-5.56;100.00
58295;BME280;45705;55.592;37.460;2022-12-18T05:22:54;98540.72;;;-5.46;100.00
58295;BME280;45705;55.592;37.460;2022-12-18T05:25:20;98549.81;;;-5.61;100.00
58295;BME280;45705;55.592;37.460;2022-12-18T05:27:47;98553.34;;;-5.67;100.00
58295;BME280;45705;55.592;37.460;2022-12-18T05:30:13;98551.84;;;-5.38;100.00
58295;BME280;45705;55.592;37.460;2022-12-18T05:32:39;98566.09;;;-5.57;100.00
58295;BME280;45705;55.592;37.460;2022-12-18T05:35:07;98562.72;;;-5.46;100.00
58295;BME280;45705;55.592;37.460;2022-12-18T05:37:33;98581.78;;;-5.81;100.00
58295;BME280;45705;55.592;37.460;2022-12-18T05:39:59;98589.06;;;-5.76;100.00
58295;BME280;45705;55.592;37.460;2022-12-18T05:42:24;98585.88;;;-5.60;100.00
58295;BME280;45705;55.592;37.460;2022-12-18T05:44:50;98603.53;;;-5.54;100.00
58295;BME280;45705;55.592;37.460;2022-12-18T05:47:16;98594.91;;;-5.93;100.00
58295;BME280;45705;55.592;37.460;2022-12-18T05:49:42;98581.81;;;-5.87;100.00
58295;BME280;45705;55.592;37.460;2022-12-18T05:52:08;98579.22;;;-5.69;100.00
58295;BME280;45705;55.592;37.460;2022-12-18T05:54:34;98590.38;;;-5.85;100.00
58295;BME280;45705;55.592;37.460;2022-12-18T05:57:00;98601.59;;;-5.65;100.00
58295;BME280;45705;55.592;37.460;2022-12-18T05:59:26;98601.56;;;-5.58;100.00
58295;BME280;45705;55.592;37.460;2022-12-18T06:01:51;98606.66;;;-5.38;100.00
58295;BME280;45705;55.592;37.460;2022-12-18T06:04:17;98607.84;;;-5.34;100.00
58295;BME280;45705;55.592;37.460;2022-12-18T06:06:43;98613.16;;;-5.34;100.00
58295;BME280;45705;55.592;37.460;2022-12-18T06:09:09;98623.97;;;-5.61;100.00
58295;BME280;45705;55.592;37.460;2022-12-18T06:11:36;98626.78;;;-5.30;100.00
58295;BME280;45705;55.592;37.460;2022-12-18T06:14:03;98624.84;;;-5.67;100.00
58295;BME280;45705;55.592;37.460;2022-12-18T06:16:30;98632.50;;;-5.59;100.00
58295;BME280;45705;55.592;37.460;2022-12-18T06:18:57;98629.38;;;-5.74;100.00
58295;BME280;45705;55.592;37.460;2022-12-18T06:21:22;98633.56;;;-5.91;100.00
58295;BME280;45705;55.592;37.460;2022-12-18T06:23:48;98637.56;;;-5.82;100.00
58295;BME280;45705;55.592;37.460;2022-12-18T06:26:14;98632.13;;;-5.62;100.00
58295;BME280;45705;55.592;37.460;2022-12-18T06:28:40;98649.81;;;-5.81;100.00
58295;BME280;45705;55.592;37.460;2022-12-18T06:31:07;98664.75;;;-5.62;100.00
58295;BME280;45705;55.592;37.460;2022-12-18T06:33:34;98679.94;;;-5.82;100.00
58295;BME280;45705;55.592;37.460;2022-12-18T06:36:05;98686.94;;;-5.63;100.00
58295;BME280;45705;55.592;37.460;2022-12-18T06:38:35;98687.97;;;-5.64;100.00
58295;BME280;45705;55.592;37.460;2022-12-18T06:41:02;98692.03;;;-5.36;100.00
58295;BME280;45705;55.592;37.460;2022-12-18T06:43:31;98686.81;;;-5.43;100.00
58295;BME280;45705;55.592;37.460;2022-12-18T06:46:00;98702.81;;;-5.31;100.00
58295;BME280;45705;55.592;37.460;2022-12-18T06:48:26;98706.97;;;-5.42;100.00
58295;BME280;45705;55.592;37.460;2022-12-18T06:50:53;98705.28;;;-5.36;100.00
58295;BME280;45705;55.592;37.460;2022-12-18T06:53:19;98707.28;;;-5.31;100.00
58295;BME280;45705;55.592;37.460;2022-12-18T06:55:44;98712.19;;;-5.35;100.00
58295;BME280;45705;55.592;37.460;2022-12-18T06:58:10;98711.56;;;-5.05;100.00
58295;BME280;45705;55.592;37.460;2022-12-18T07:00:36;98716.78;;;-4.99;100.00
58295;BME280;45705;55.592;37.460;2022-12-18T07:03:01;98721.41;;;-5.12;100.00
58295;BME280;45705;55.592;37.460;2022-12-18T07:05:27;98732.75;;;-5.05;100.00
58295;BME280;45705;55.592;37.460;2022-12-18T07:07:53;98734.53;;;-4.99;100.00
58295;BME280;45705;55.592;37.460;2022-12-18T07:10:18;98745.94;;;-4.73;100.00
58295;BME280;45705;55.592;37.460;2022-12-18T07:12:44;98742.38;;;-4.86;100.00
58295;BME280;45705;55.592;37.460;2022-12-18T07:15:10;98752.69;;;-5.21;100.00
58295;BME280;45705;55.592;37.460;2022-12-18T07:17:35;98762.31;;;-5.34;100.00
58295;BME280;45705;55.592;37.460;2022-12-18T07:20:02;98764.84;;;-5.45;100.00
58295;BME280;45705;55.592;37.460;2022-12-18T07:22:29;98758.22;;;-5.29;100.00
58295;BME280;45705;55.592;37.460;2022-12-18T07:24:54;98763.03;;;-5.20;100.00
58295;BME280;45705;55.592;37.460;2022-12-18T07:27:21;98762.06;;;-5.50;100.00
58295;BME280;45705;55.592;37.460;2022-12-18T07:29:47;98770.06;;;-5.32;100.00
58295;BME280;45705;55.592;37.460;2022-12-18T07:32:13;98758.34;;;-5.18;100.00
58295;BME280;45705;55.592;37.460;2022-12-18T07:34:39;98758.78;;;-5.21;100.00
58295;BME280;45705;55.592;37.460;2022-12-18T07:37:05;98772.34;;;-5.10;100.00
58295;BME280;45705;55.592;37.460;2022-12-18T07:39:30;98765.88;;;-5.15;100.00
58295;BME280;45705;55.592;37.460;2022-12-18T07:41:56;98780.00;;;-4.96;100.00
58295;BME280;45705;55.592;37.460;2022-12-18T07:44:45;98783.78;;;-5.42;100.00
58295;BME280;45705;55.592;37.460;2022-12-18T07:47:11;98791.34;;;-5.45;100.00
58295;BME280;45705;55.592;37.460;2022-12-18T07:49:37;98790.88;;;-5.36;100.00
58295;BME280;45705;55.592;37.460;2022-12-18T07:52:03;98791.50;;;-5.08;100.00
58295;BME280;45705;55.592;37.460;2022-12-18T07:54:28;98792.72;;;-5.36;100.00
58295;BME280;45705;55.592;37.460;2022-12-18T07:56:54;98798.44;;;-5.07;100.00
58295;BME280;45705;55.592;37.460;2022-12-18T07:59:20;98793.88;;;-5.00;100.00
58295;BME280;45705;55.592;37.460;2022-12-18T08:01:46;98814.50;;;-5.34;100.00
58295;BME280;45705;55.592;37.460;2022-12-18T08:04:11;98825.75;;;-5.07;100.00
58295;BME280;45705;55.592;37.460;2022-12-18T08:06:37;98821.53;;;-5.15;100.00
58295;BME280;45705;55.592;37.460;2022-12-18T08:09:03;98829.81;;;-5.04;99.63
58295;BME280;45705;55.592;37.460;2022-12-18T08:11:29;98830.38;;;-4.70;99.65
58295;BME280;45705;55.592;37.460;2022-12-18T08:13:55;98832.53;;;-4.86;99.23
58295;BME280;45705;55.592;37.460;2022-12-18T08:16:22;98837.53;;;-4.71;99.07
58295;BME280;45705;55.592;37.460;2022-12-18T08:18:48;98829.81;;;-4.54;98.50
58295;BME280;45705;55.592;37.460;2022-12-18T08:21:23;98840.44;;;-4.54;97.22
58295;BME280;45705;55.592;37.460;2022-12-18T08:23:50;98850.59;;;-5.01;98.66
58295;BME280;45705;55.592;37.460;2022-12-18T08:26:17;98842.38;;;-4.93;100.00
58295;BME280;45705;55.592;37.460;2022-12-18T08:28:43;98868.31;;;-4.70;99.21
58295;BME280;45705;55.592;37.460;2022-12-18T08:31:09;98861.06;;;-4.56;98.30
58295;BME280;45705;55.592;37.460;2022-12-18T08:33:36;98868.94;;;-5.00;99.44
58295;BME280;45705;55.592;37.460;2022-12-18T08:36:03;98857.31;;;-4.73;99.27
58295;BME280;45705;55.592;37.460;2022-12-18T08:38:29;98866.63;;;-4.64;98.75
58295;BME280;45705;55.592;37.460;2022-12-18T08:41:02;98864.16;;;-4.59;99.38
58295;BME280;45705;55.592;37.460;2022-12-18T08:43:28;98857.78;;;-4.77;97.87
58295;BME280;45705;55.592;37.460;2022-12-18T08:46:16;98855.53;;;-4.80;99.12
58295;BME280;45705;55.592;37.460;2022-12-18T08:48:43;98864.47;;;-4.74;99.83
58295;BME280;45705;55.592;37.460;2022-12-18T08:51:09;98880.88;;;-5.16;100.00
58295;BME280;45705;55.592;37.460;2022-12-18T08:53:37;98868.47;;;-4.90;100.00
58295;BME280;45705;55.592;37.460;2022-12-18T08:56:04;98873.41;;;-5.00;100.00
58295;BME280;45705;55.592;37.460;2022-12-18T08:58:29;98857.78;;;-4.77;100.00
58295;BME280;45705;55.592;37.460;2022-12-18T09:01:04;98879.81;;;-4.83;100.00
58295;BME280;45705;55.592;37.460;2022-12-18T09:03:30;98875.19;;;-4.62;100.00
58295;BME280;45705;55.592;37.460;2022-12-18T09:05:56;98875.19;;;-4.62;99.62
58295;BME280;45705;55.592;37.460;2022-12-18T09:08:22;98856.59;;;-4.81;100.00
58295;BME280;45705;55.592;37.460;2022-12-18T09:10:49;98903.47;;;-4.24;99.89
58295;BME280;45705;55.592;37.460;2022-12-18T09:13:15;98919.13;;;-4.41;100.00
58295;BME280;45705;55.592;37.460;2022-12-18T09:15:46;98912.72;;;-4.33;99.22
58295;BME280;45705;55.592;37.460;2022-12-18T09:18:13;98917.88;;;-4.39;98.47
58295;BME280;45705;55.592;37.460;2022-12-18T09:20:40;98920.00;;;-4.04;98.37
58295;BME280;45705;55.592;37.460;2022-12-18T09:23:06;98924.53;;;-4.29;99.36
58295;BME280;45705;55.592;37.460;2022-12-18T09:25:33;98924.81;;;-4.38;100.00
58295;BME280;45705;55.592;37.460;2022-12-18T09:28:06;98922.47;;;-4.27;100.00
58295;BME280;45705;55.592;37.460;2022-12-18T09:30:37;98929.41;;;-4.26;100.00
58295;BME280;45705;55.592;37.460;2022-12-18T09:33:03;98927.78;;;-4.52;100.00
58295;BME280;45705;55.592;37.460;2022-12-18T09:35:29;98941.41;;;-4.49;100.00
58295;BME280;45705;55.592;37.460;2022-12-18T09:37:55;98939.25;;;-4.08;100.00
58295;BME280;45705;55.592;37.460;2022-12-18T09:40:24;98941.03;;;-4.02;100.00
58295;BME280;45705;55.592;37.460;2022-12-18T09:43:02;98941.47;;;-4.05;99.81
58295;BME280;45705;55.592;37.460;2022-12-18T09:45:33;98937.56;;;-4.53;100.00
58295;BME280;45705;55.592;37.460;2022-12-18T09:48:04;98945.03;;;-3.93;100.00
58295;BME280;45705;55.592;37.460;2022-12-18T09:50:36;98953.50;;;-4.03;100.00
58295;BME280;45705;55.592;37.460;2022-12-18T09:53:15;98949.72;;;-3.70;100.00
58295;BME280;45705;55.592;37.460;2022-12-18T09:55:46;98950.56;;;-3.94;100.00
58295;BME280;45705;55.592;37.460;2022-12-18T09:58:19;98952.63;;;-3.97;100.00
58295;BME280;45705;55.592;37.460;2022-12-18T10:00:46;98960.91;;;-3.86;100.00
58295;BME280;45705;55.592;37.460;2022-12-18T10:03:14;98961.28;;;-3.83;100.00
58295;BME280;45705;55.592;37.460;2022-12-18T10:06:18;98961.34;;;-3.89;99.98
58295;BME280;45705;55.592;37.460;2022-12-18T10:14:41;98962.19;;;-4.14;100.00
58295;BME280;45705;55.592;37.460;2022-12-18T10:20:24;98967.53;;;-3.96;100.00
58295;BME280;45705;55.592;37.460;2022-12-18T10:22:55;98954.81;;;-4.12;100.00
58295;BME280;45705;55.592;37.460;2022-12-18T10:28:10;98967.59;;;-4.27;100.00
58295;BME280;45705;55.592;37.460;2022-12-18T10:30:38;98970.63;;;-3.99;100.00
58295;BME280;45705;55.592;37.460;2022-12-18T10:33:05;98972.22;;;-3.98;100.00
58295;BME280;45705;55.592;37.460;2022-12-18T10:35:31;98977.19;;;-4.01;100.00
58295;BME280;45705;55.592;37.460;2022-12-18T10:40:59;98991.16;;;-4.38;100.00
58295;BME280;45705;55.592;37.460;2022-12-18T10:43:29;98989.03;;;-4.29;100.00
58295;BME280;45705;55.592;37.460;2022-12-18T10:46:00;99006.00;;;-4.30;100.00
58295;BME280;45705;55.592;37.460;2022-12-18T10:48:27;99017.59;;;-4.24;100.00
58295;BME280;45705;55.592;37.460;2022-12-18T10:50:53;99019.28;;;-4.30;100.00
58295;BME280;45705;55.592;37.460;2022-12-18T10:53:31;99028.03;;;-4.29;100.00
58295;BME280;45705;55.592;37.460;2022-12-18T10:55:58;99045.50;;;-4.15;100.00
58295;BME280;45705;55.592;37.460;2022-12-18T10:58:28;99044.31;;;-4.19;100.00
58295;BME280;45705;55.592;37.460;2022-12-18T11:01:09;99046.81;;;-4.24;100.00
58295;BME280;45705;55.592;37.460;2022-12-18T11:06:12;99043.56;;;-4.26;100.00
58295;BME280;45705;55.592;37.460;2022-12-18T11:08:40;99037.03;;;-4.30;100.00
58295;BME280;45705;55.592;37.460;2022-12-18T11:11:17;99038.13;;;-4.45;100.00
58295;BME280;45705;55.592;37.460;2022-12-18T11:16:19;99027.09;;;-4.42;100.00
58295;BME280;45705;55.592;37.460;2022-12-18T11:18:45;99037.13;;;-4.44;100.00
58295;BME280;45705;55.592;37.460;2022-12-18T11:21:12;99040.59;;;-4.50;100.00
58295;BME280;45705;55.592;37.460;2022-12-18T11:23:47;99040.72;;;-4.31;100.00
58295;BME280;45705;55.592;37.460;2022-12-18T11:26:14;99053.03;;;-4.44;100.00
58295;BME280;45705;55.592;37.460;2022-12-18T11:28:44;99053.53;;;-4.60;100.00
58295;BME280;45705;55.592;37.460;2022-12-18T11:33:47;99067.31;;;-4.45;100.00
58295;BME280;45705;55.592;37.460;2022-12-18T11:36:16;99070.22;;;-4.53;100.00
58295;BME280;45705;55.592;37.460;2022-12-18T11:38:44;99059.34;;;-4.77;100.00
58295;BME280;45705;55.592;37.460;2022-12-18T11:41:28;99075.63;;;-4.35;100.00
58295;BME280;45705;55.592;37.460;2022-12-18T11:44:18;99077.53;;;-4.42;100.00
58295;BME280;45705;55.592;37.460;2022-12-18T11:49:55;99091.81;;;-4.43;100.00
58295;BME280;45705;55.592;37.460;2022-12-18T11:52:35;99093.47;;;-4.48;100.00
58295;BME280;45705;55.592;37.460;2022-12-18T11:55:23;99102.47;;;-4.56;100.00
58295;BME280;45705;55.592;37.460;2022-12-18T12:00:19;99119.75;;;-4.33;100.00
58295;BME280;45705;55.592;37.460;2022-12-18T12:11:10;99140.72;;;-4.25;100.00
58295;BME280;45705;55.592;37.460;2022-12-18T12:16:20;99158.50;;;-4.32;100.00
58295;BME280;45705;55.592;37.460;2022-12-18T12:21:46;99157.19;;;-4.55;100.00
58295;BME280;45705;55.592;37.460;2022-12-18T12:24:37;99159.13;;;-4.30;100.00
58295;BME280;45705;55.592;37.460;2022-12-18T12:27:44;99165.13;;;-4.48;100.00
58295;BME280;45705;55.592;37.460;2022-12-18T12:30:20;99175.38;;;-4.07;100.00
58295;BME280;45705;55.592;37.460;2022-12-18T12:38:04;99197.56;;;-4.40;100.00
58295;BME280;45705;55.592;37.460;2022-12-18T12:43:41;99193.69;;;-4.44;100.00
58295;BME280;45705;55.592;37.460;2022-12-18T12:46:16;99191.41;;;-4.40;100.00
58295;BME280;45705;55.592;37.460;2022-12-18T12:49:04;99202.63;;;-4.31;100.00
58295;BME280;45705;55.592;37.460;2022-12-18T12:51:37;99207.69;;;-4.23;100.00
58295;BME280;45705;55.592;37.460;2022-12-18T12:54:13;99215.88;;;-4.31;100.00
58295;BME280;45705;55.592;37.460;2022-12-18T13:02:34;99225.66;;;-4.19;100.00
58295;BME280;45705;55.592;37.460;2022-12-18T13:07:49;99233.81;;;-4.20;100.00
58295;BME280;45705;55.592;37.460;2022-12-18T13:13:05;99245.50;;;-4.35;100.00
58295;BME280;45705;55.592;37.460;2022-12-18T13:16:03;99251.75;;;-4.09;100.00
58295;BME280;45705;55.592;37.460;2022-12-18T13:18:29;99254.66;;;-4.30;100.00
58295;BME280;45705;55.592;37.460;2022-12-18T13:30:52;99265.72;;;-4.33;100.00
58295;BME280;45705;55.592;37.460;2022-12-18T13:38:23;99293.88;;;-4.32;100.00
58295;BME280;45705;55.592;37.460;2022-12-18T13:46:00;99311.00;;;-4.15;100.00
58295;BME280;45705;55.592;37.460;2022-12-18T13:48:30;99320.19;;;-4.11;100.00
58295;BME280;45705;55.592;37.460;2022-12-18T13:51:00;99317.75;;;-4.12;100.00
58295;BME280;45705;55.592;37.460;2022-12-18T13:53:30;99335.09;;;-4.10;100.00
58295;BME280;45705;55.592;37.460;2022-12-18T13:55:59;99334.25;;;-4.04;100.00
58295;BME280;45705;55.592;37.460;2022-12-18T13:58:24;99338.78;;;-4.11;100.00
58295;BME280;45705;55.592;37.460;2022-12-18T14:00:50;99346.47;;;-3.96;100.00
58295;BME280;45705;55.592;37.460;2022-12-18T14:03:19;99351.78;;;-3.89;100.00
58295;BME280;45705;55.592;37.460;2022-12-18T14:05:55;99345.69;;;-4.03;100.00
58295;BME280;45705;55.592;37.460;2022-12-18T14:08:23;99349.41;;;-4.11;100.00
58295;BME280;45705;55.592;37.460;2022-12-18T14:10:50;99362.88;;;-4.19;100.00
58295;BME280;45705;55.592;37.460;2022-12-18T14:13:30;99362.47;;;-4.16;100.00
58295;BME280;45705;55.592;37.460;2022-12-18T14:15:57;99367.75;;;-4.03;100.00
58295;BME280;45705;55.592;37.460;2022-12-18T14:21:20;99389.84;;;-4.09;100.00
58295;BME280;45705;55.592;37.460;2022-12-18T14:23:47;99387.00;;;-4.27;100.00
58295;BME280;45705;55.592;37.460;2022-12-18T14:26:42;99394.94;;;-4.14;100.00
58295;BME280;45705;55.592;37.460;2022-12-18T14:29:34;99404.13;;;-4.23;100.00
58295;BME280;45705;55.592;37.460;2022-12-18T14:32:10;99417.22;;;-4.35;100.00
58295;BME280;45705;55.592;37.460;2022-12-18T14:34:36;99414.97;;;-4.18;100.00
58295;BME280;45705;55.592;37.460;2022-12-18T14:37:02;99415.56;;;-4.16;100.00
58295;BME280;45705;55.592;37.460;2022-12-18T14:39:28;99421.66;;;-3.89;100.00
58295;BME280;45705;55.592;37.460;2022-12-18T14:41:54;99429.03;;;-4.04;100.00
58295;BME280;45705;55.592;37.460;2022-12-18T14:44:19;99423.53;;;-4.03;100.00
58295;BME280;45705;55.592;37.460;2022-12-18T14:46:48;99439.25;;;-4.08;100.00
58295;BME280;45705;55.592;37.460;2022-12-18T14:51:51;99433.56;;;-4.31;100.00